Time;durP1;ratioP1;P1;durP2;ratioP2;P2;SDS_P1;SDS_P2;PMS_P1;PMS_P2;Temp;Humidity;BMP_temperature;BMP_pressure;BME280_temperature;BME280_humidity;BME280_pressure;Samples;Min_cycle;Max_cycle;Signal;HPM_P1;HPM_P2
2021/07/22 00:01:48;;;;;;;13.52;2.83;;;13.50;99.90;;;;;;5014458;28;20034;-79
2021/07/22 00:04:13;;;;;;;18.20;3.00;;;13.60;99.90;;;;;;5014578;28;20026;-79
2021/07/22 00:06:39;;;;;;;10.07;2.67;;;13.60;99.90;;;;;;5014408;28;20118;-79
2021/07/22 00:09:04;;;;;;;9.75;2.90;;;13.60;99.90;;;;;;5014484;28;20018;-79
2021/07/22 00:11:30;;;;;;;11.63;2.33;;;13.60;99.90;;;;;;5014169;28;20022;-80
2021/07/22 00:13:56;;;;;;;9.30;2.42;;;13.60;99.90;;;;;;5014453;28;20465;-79
2021/07/22 00:16:21;;;;;;;11.77;3.00;;;13.50;99.90;;;;;;4996466;28;20026;-79
2021/07/22 00:18:47;;;;;;;14.90;3.47;;;13.50;99.90;;;;;;4996466;28;20030;-79
2021/07/22 00:21:13;;;;;;;18.08;3.47;;;13.50;99.90;;;;;;5014229;28;20034;-80
2021/07/22 00:23:38;;;;;;;14.90;3.70;;;13.50;99.90;;;;;;5014452;28;20030;-79
2021/07/22 00:26:04;;;;;;;14.40;2.72;;;13.50;99.90;;;;;;4996454;28;20018;-79
2021/07/22 00:28:30;;;;;;;9.32;2.15;;;13.60;99.90;;;;;;4996587;28;20049;-79
2021/07/22 00:30:56;;;;;;;19.25;3.88;;;13.60;99.90;;;;;;5024665;28;20033;-79
2021/07/22 00:33:22;;;;;;;12.05;3.22;;;13.60;99.90;;;;;;5015173;28;20422;-80
2021/07/22 00:35:47;;;;;;;16.17;3.45;;;13.60;99.90;;;;;;4996303;28;20168;-79
2021/07/22 00:38:13;;;;;;;14.90;3.08;;;13.60;99.90;;;;;;5013960;28;20061;-80
2021/07/22 00:40:46;;;;;;;12.38;2.83;;;13.60;99.90;;;;;;5013881;28;20026;-79
2021/07/22 00:43:11;;;;;;;15.10;2.50;;;13.60;99.90;;;;;;5013573;28;20153;-80
2021/07/22 00:45:37;;;;;;;10.30;2.80;;;13.70;99.90;;;;;;5013659;28;20108;-80
2021/07/22 00:48:03;;;;;;;10.95;2.80;;;13.70;99.90;;;;;;5013818;28;20093;-79
2021/07/22 00:50:29;;;;;;;11.98;3.35;;;13.70;99.90;;;;;;4996193;28;20033;-79
2021/07/22 00:52:55;;;;;;;14.65;3.42;;;13.70;99.90;;;;;;4995977;28;20403;-79
2021/07/22 00:55:27;;;;;;;10.05;2.70;;;13.70;99.90;;;;;;5013462;28;20026;-79
2021/07/22 00:57:53;;;;;;;8.40;2.47;;;13.70;99.90;;;;;;4995932;28;20029;-79
2021/07/22 01:00:19;;;;;;;12.40;3.45;;;13.70;99.90;;;;;;5013535;28;20018;-79
2021/07/22 01:02:45;;;;;;;16.17;3.35;;;13.70;99.90;;;;;;5013254;28;20038;-79
2021/07/22 01:05:10;;;;;;;9.98;2.50;;;13.70;99.90;;;;;;4995699;28;20080;-79
2021/07/22 01:07:37;;;;;;;15.52;3.50;;;13.70;99.90;;;;;;5013316;28;20026;-79
2021/07/22 01:10:03;;;;;;;10.50;2.38;;;13.80;99.90;;;;;;5013357;28;20028;-79
2021/07/22 01:12:29;;;;;;;9.35;2.30;;;13.70;99.90;;;;;;4995245;28;20072;-79
2021/07/22 01:14:54;;;;;;;20.65;2.88;;;13.80;99.90;;;;;;5013225;28;20034;-79
2021/07/22 01:17:42;;;;;;;13.77;2.65;;;13.80;99.90;;;;;;5013042;28;20037;-80
2021/07/22 01:20:16;;;;;;;11.00;3.20;;;13.80;99.90;;;;;;4995564;28;20029;-80
2021/07/22 01:22:42;;;;;;;14.90;3.53;;;13.80;99.90;;;;;;5012947;28;20057;-79
2021/07/22 01:25:09;;;;;;;8.10;1.73;;;13.90;99.90;;;;;;5012834;28;20053;-79
2021/07/22 01:27:34;;;;;;;11.20;1.90;;;13.90;99.90;;;;;;4995458;28;20025;-79
2021/07/22 01:30:00;;;;;;;6.97;2.25;;;13.90;99.90;;;;;;5012095;28;20437;-79
2021/07/22 01:32:25;;;;;;;11.43;2.53;;;13.90;99.90;;;;;;4995118;28;20146;-79
2021/07/22 01:34:51;;;;;;;18.77;3.00;;;13.90;99.90;;;;;;4995235;28;20488;-80
2021/07/22 01:37:16;;;;;;;16.98;3.50;;;13.90;99.90;;;;;;5012748;28;20034;-79
2021/07/22 01:39:42;;;;;;;9.98;1.90;;;14.00;99.90;;;;;;5012801;28;20022;-79
2021/07/22 01:42:08;;;;;;;12.50;2.03;;;13.90;99.90;;;;;;5012708;28;20026;-79
2021/07/22 01:44:34;;;;;;;11.93;2.17;;;13.90;99.90;;;;;;5019721;28;20029;-79
2021/07/22 01:46:59;;;;;;;20.38;2.60;;;13.90;99.90;;;;;;5014698;28;20017;-79
2021/07/22 01:49:25;;;;;;;11.73;3.20;;;13.90;99.90;;;;;;5014737;28;20026;-80
2021/07/22 01:51:50;;;;;;;12.48;2.50;;;13.90;99.90;;;;;;5032087;28;20021;-79
2021/07/22 01:54:16;;;;;;;7.20;1.75;;;13.90;99.90;;;;;;5014560;28;20022;-79
2021/07/22 01:56:41;;;;;;;8.65;2.40;;;13.90;99.90;;;;;;5014657;28;20025;-79
2021/07/22 01:59:07;;;;;;;14.65;2.55;;;14.00;99.90;;;;;;5032486;28;20505;-79
2021/07/22 02:01:32;;;;;;;10.35;2.63;;;14.00;99.90;;;;;;5014256;28;20468;-79
2021/07/22 02:03:58;;;;;;;11.73;3.47;;;13.90;99.90;;;;;;5032065;28;20025;-79
2021/07/22 02:06:23;;;;;;;18.38;3.83;;;14.00;99.90;;;;;;5014247;28;20025;-79
2021/07/22 02:08:49;;;;;;;18.58;2.50;;;14.10;99.90;;;;;;5032067;28;20069;-79
2021/07/22 02:11:15;;;;;;;13.75;2.60;;;14.00;99.90;;;;;;5031944;28;20048;-80
2021/07/22 02:13:40;;;;;;;9.57;2.15;;;14.00;99.90;;;;;;5032023;28;20028;-79
2021/07/22 02:16:07;;;;;;;20.20;2.75;;;14.00;99.90;;;;;;5031826;28;20033;-79
2021/07/22 02:18:32;;;;;;;12.18;2.78;;;14.00;99.90;;;;;;5014226;28;20030;-80
2021/07/22 02:20:58;;;;;;;14.90;2.60;;;14.10;99.90;;;;;;5014233;28;20025;-80
2021/07/22 02:23:23;;;;;;;8.02;2.25;;;14.00;99.90;;;;;;5031532;28;20489;-80
2021/07/22 02:25:49;;;;;;;6.22;2.88;;;14.00;99.90;;;;;;5031834;28;20080;-79
2021/07/22 02:28:14;;;;;;;12.88;2.38;;;14.10;99.90;;;;;;5031878;28;20068;-79
2021/07/22 02:30:40;;;;;;;9.93;2.20;;;14.10;99.90;;;;;;5014167;28;20017;-79
2021/07/22 02:33:07;;;;;;;17.27;3.05;;;14.10;99.90;;;;;;5031508;28;20403;-79
2021/07/22 02:35:33;;;;;;;11.10;2.63;;;14.10;99.90;;;;;;5031594;28;20029;-79
2021/07/22 02:37:58;;;;;;;15.98;2.60;;;14.00;99.90;;;;;;5014056;28;20030;-79
2021/07/22 02:40:24;;;;;;;11.80;2.60;;;14.00;99.90;;;;;;5032926;28;20104;-79
2021/07/22 02:42:49;;;;;;;7.45;1.95;;;14.00;99.90;;;;;;5035656;28;20122;-79
2021/07/22 02:45:15;;;;;;;7.18;1.83;;;14.10;99.90;;;;;;5022826;28;20026;-80
2021/07/22 02:47:40;;;;;;;15.18;2.50;;;14.10;99.90;;;;;;5015965;28;20030;-79
2021/07/22 02:50:07;;;;;;;8.32;2.22;;;13.90;99.90;;;;;;5015960;28;20116;-79
2021/07/22 02:52:33;;;;;;;11.35;2.40;;;14.00;99.90;;;;;;4998068;28;20072;-79
2021/07/22 02:54:59;;;;;;;15.30;2.58;;;14.00;99.90;;;;;;5015865;28;20041;-79
2021/07/22 02:57:25;;;;;;;10.35;2.15;;;14.00;99.90;;;;;;5015846;28;20037;-79
2021/07/22 02:59:51;;;;;;;10.85;2.38;;;14.00;99.90;;;;;;4998305;28;20029;-79
2021/07/22 03:02:16;;;;;;;8.98;2.65;;;14.00;99.90;;;;;;5015522;28;20026;-79
2021/07/22 03:04:42;;;;;;;15.23;2.40;;;14.00;99.90;;;;;;4998090;28;20030;-79
2021/07/22 03:07:07;;;;;;;12.30;2.42;;;14.00;99.90;;;;;;4998026;28;20072;-79
2021/07/22 03:09:33;;;;;;;8.10;2.63;;;14.00;99.90;;;;;;5015141;28;20398;-79
2021/07/22 03:11:58;;;;;;;11.45;2.75;;;14.00;99.90;;;;;;5015369;28;20026;-79
2021/07/22 03:14:24;;;;;;;6.82;1.92;;;14.00;99.90;;;;;;4998055;28;20037;-79
2021/07/22 03:16:49;;;;;;;6.55;2.42;;;14.00;99.90;;;;;;5015328;28;20511;-79
2021/07/22 03:19:15;;;;;;;10.80;2.58;;;14.00;99.90;;;;;;4997884;28;20163;-79
2021/07/22 03:21:41;;;;;;;14.07;2.50;;;14.00;99.90;;;;;;5015179;28;20137;-79
2021/07/22 03:24:06;;;;;;;11.75;2.97;;;14.00;99.90;;;;;;5015267;28;20029;-80
2021/07/22 03:26:32;;;;;;;12.52;3.40;;;14.00;99.90;;;;;;5015240;28;20054;-79
2021/07/22 03:28:57;;;;;;;9.07;2.08;;;14.00;99.90;;;;;;5015347;28;20025;-80
2021/07/22 03:31:23;;;;;;;14.43;2.65;;;14.00;99.90;;;;;;5016077;28;20024;-79
2021/07/22 03:33:48;;;;;;;9.57;2.50;;;14.00;99.90;;;;;;5008680;28;20113;-79
2021/07/22 03:36:14;;;;;;;9.85;2.50;;;14.10;99.90;;;;;;4997511;28;20446;-79
2021/07/22 03:38:39;;;;;;;9.68;2.25;;;14.10;99.90;;;;;;5014996;28;20030;-79
2021/07/22 03:41:05;;;;;;;17.77;2.83;;;14.00;99.90;;;;;;5014905;28;20056;-79
2021/07/22 03:43:30;;;;;;;16.77;2.60;;;14.00;99.90;;;;;;5014746;28;20037;-79
2021/07/22 03:45:58;;;;;;;20.98;3.47;;;14.10;99.90;;;;;;4997234;28;20040;-79
2021/07/22 03:48:23;;;;;;;13.30;2.40;;;14.10;99.90;;;;;;5014861;28;20021;-80
2021/07/22 03:50:49;;;;;;;11.00;2.53;;;14.10;99.90;;;;;;5014869;28;20726;-79
2021/07/22 03:53:15;;;;;;;16.88;2.65;;;14.20;99.90;;;;;;4995908;28;20021;-79
2021/07/22 03:55:41;;;;;;;10.15;2.38;;;14.10;99.90;;;;;;5014677;28;20026;-79
2021/07/22 03:58:06;;;;;;;9.00;2.45;;;14.10;99.90;;;;;;4997144;28;20049;-79
2021/07/22 04:00:32;;;;;;;16.65;2.60;;;14.10;99.90;;;;;;5014691;28;20105;-79
2021/07/22 04:02:59;;;;;;;13.07;3.15;;;14.20;99.90;;;;;;5014472;28;20056;-79
2021/07/22 04:05:25;;;;;;;13.88;2.55;;;14.20;99.90;;;;;;5014461;28;20022;-80
2021/07/22 04:07:54;;;;;;;8.60;2.17;;;14.20;99.90;;;;;;5014513;28;20494;-79
2021/07/22 04:10:20;;;;;;;11.80;2.55;;;14.20;99.90;;;;;;5014513;28;20029;-79
2021/07/22 04:12:45;;;;;;;15.80;2.70;;;14.20;99.90;;;;;;5014313;28;20034;-79
2021/07/22 04:15:11;;;;;;;14.68;2.65;;;14.30;99.90;;;;;;4996792;28;20049;-80
2021/07/22 04:17:36;;;;;;;10.85;2.85;;;14.30;99.90;;;;;;4996734;28;20034;-79
2021/07/22 04:20:03;;;;;;;16.80;2.33;;;14.30;99.90;;;;;;5014376;28;20108;-79
2021/07/22 04:22:29;;;;;;;17.20;2.67;;;14.30;99.90;;;;;;5014014;28;20026;-79
2021/07/22 04:24:54;;;;;;;7.88;2.33;;;14.40;99.90;;;;;;4996576;28;20030;-79
2021/07/22 04:27:27;;;;;;;17.10;2.90;;;14.40;99.90;;;;;;4996638;28;20395;-79
2021/07/22 04:29:54;;;;;;;11.18;3.42;;;14.40;99.90;;;;;;4996626;28;20030;-79
2021/07/22 04:32:19;;;;;;;20.63;2.83;;;14.50;99.90;;;;;;5013861;28;20022;-79
2021/07/22 04:34:45;;;;;;;7.28;2.47;;;14.50;99.90;;;;;;5013981;28;20075;-80
2021/07/22 04:37:10;;;;;;;6.97;2.80;;;14.60;99.90;;;;;;5013938;28;20079;-80
2021/07/22 04:39:36;;;;;;;12.25;2.20;;;14.50;99.90;;;;;;5013964;28;20092;-80
2021/07/22 04:42:01;;;;;;;9.50;2.85;;;14.60;99.90;;;;;;5013712;28;20446;-79
2021/07/22 04:44:27;;;;;;;7.40;1.98;;;14.60;99.90;;;;;;5002321;28;20428;-80
2021/07/22 04:46:56;;;;;;;21.17;2.13;;;14.70;99.90;;;;;;5033531;28;20021;-80
2021/07/22 04:49:21;;;;;;;16.63;2.85;;;14.70;99.90;;;;;;5033618;28;20021;-80
2021/07/22 04:51:47;;;;;;;8.95;2.28;;;14.80;99.90;;;;;;5033231;28;20428;-80
2021/07/22 04:54:12;;;;;;;15.65;2.65;;;14.80;99.90;;;;;;5015737;28;20111;-80
2021/07/22 04:56:38;;;;;;;11.38;2.58;;;14.80;99.90;;;;;;5033326;28;20068;-79
2021/07/22 04:59:03;;;;;;;14.88;2.45;;;14.90;99.90;;;;;;5033422;28;20108;-80
2021/07/22 05:01:29;;;;;;;14.88;2.75;;;15.00;99.90;;;;;;5033228;28;20038;-80
2021/07/22 05:03:54;;;;;;;11.32;2.42;;;15.00;99.90;;;;;;5015403;28;20030;-80
2021/07/22 05:06:20;;;;;;;18.30;3.72;;;15.00;99.90;;;;;;5033174;28;20101;-80
2021/07/22 05:08:45;;;;;;;7.80;2.40;;;15.00;99.90;;;;;;5033205;28;20018;-80
2021/07/22 05:11:11;;;;;;;10.70;2.72;;;15.10;99.90;;;;;;5033072;28;20481;-80
2021/07/22 05:13:39;;;;;;;7.25;2.17;;;15.10;99.90;;;;;;5015231;28;20025;-80
2021/07/22 05:16:06;;;;;;;9.15;2.28;;;15.20;99.90;;;;;;5032812;28;20098;-80
2021/07/22 05:18:32;;;;;;;9.10;2.03;;;15.20;99.90;;;;;;5015313;28;20029;-79
2021/07/22 05:20:57;;;;;;;10.55;2.05;;;15.20;99.90;;;;;;5032883;28;20405;-80
2021/07/22 05:23:22;;;;;;;17.38;3.90;;;15.30;99.90;;;;;;5032662;28;20017;-79
2021/07/22 05:25:48;;;;;;;7.60;2.33;;;15.30;99.90;;;;;;5032825;28;20646;-80
2021/07/22 05:28:13;;;;;;;9.55;2.45;;;15.40;99.90;;;;;;5032889;28;20025;-80
2021/07/22 05:30:39;;;;;;;11.57;2.15;;;15.40;99.90;;;;;;5032699;28;20028;-80
2021/07/22 05:33:07;;;;;;;12.23;2.03;;;15.40;99.90;;;;;;5032604;28;20030;-79
2021/07/22 05:35:32;;;;;;;15.85;2.58;;;15.50;99.90;;;;;;5032559;28;20029;-79
2021/07/22 05:37:58;;;;;;;22.70;2.92;;;15.50;99.90;;;;;;5014918;28;20448;-80
2021/07/22 05:40:23;;;;;;;13.05;2.40;;;15.60;99.90;;;;;;5032592;28;20021;-78
2021/07/22 05:42:49;;;;;;;14.02;2.45;;;15.50;99.90;;;;;;5032312;28;20036;-80
2021/07/22 05:45:15;;;;;;;9.70;3.05;;;15.50;99.90;;;;;;5019520;28;20021;-80
2021/07/22 05:47:42;;;;;;;7.35;2.50;;;15.60;99.90;;;;;;5012757;28;20022;-80
2021/07/22 05:50:08;;;;;;;11.52;2.75;;;15.70;99.90;;;;;;5025427;28;20048;-81
2021/07/22 05:52:33;;;;;;;7.63;1.90;;;15.80;99.90;;;;;;5005555;28;20036;-81
2021/07/22 05:54:59;;;;;;;9.75;2.70;;;15.80;99.90;;;;;;5044048;28;20036;-82
2021/07/22 05:57:25;;;;;;;8.57;2.10;;;15.90;99.90;;;;;;5044188;28;20075;-80
2021/07/22 05:59:50;;;;;;;10.00;2.88;;;16.00;99.90;;;;;;5044175;28;20030;-78
2021/07/22 06:02:16;;;;;;;6.95;1.90;;;16.10;99.90;;;;;;5008548;28;20042;-79
2021/07/22 06:04:41;;;;;;;17.30;2.45;;;16.10;99.90;;;;;;5012060;28;20422;-79
2021/07/22 06:07:07;;;;;;;12.65;2.88;;;16.10;99.90;;;;;;5012196;28;20033;-78
2021/07/22 06:09:33;;;;;;;10.90;2.55;;;16.10;99.90;;;;;;5029825;28;20029;-79
2021/07/22 06:11:58;;;;;;;11.60;2.30;;;16.10;99.90;;;;;;5038207;28;20485;-81
2021/07/22 06:14:24;;;;;;;9.07;2.45;;;16.10;99.90;;;;;;5039769;28;20108;-81
2021/07/22 06:16:49;;;;;;;13.82;2.10;;;16.20;99.90;;;;;;5028710;28;20086;-80
2021/07/22 06:19:15;;;;;;;7.70;2.35;;;16.30;99.90;;;;;;5047396;28;20112;-81
2021/07/22 06:21:40;;;;;;;12.32;2.42;;;16.20;99.90;;;;;;5025950;28;20032;-80
2021/07/22 06:24:06;;;;;;;15.50;2.55;;;16.20;99.90;;;;;;5047249;28;20032;-80
2021/07/22 06:26:35;;;;;;;12.15;2.00;;;16.30;99.90;;;;;;5024689;28;20017;-80
2021/07/22 06:29:02;;;;;;;10.13;1.75;;;16.30;99.90;;;;;;5045622;28;20098;-81
2021/07/22 06:31:28;;;;;;;10.65;2.13;;;16.30;99.90;;;;;;5041685;28;20030;-80
2021/07/22 06:33:53;;;;;;;11.40;2.47;;;16.30;99.90;;;;;;5026591;28;20856;-80
2021/07/22 06:36:19;;;;;;;15.32;2.88;;;16.30;99.90;;;;;;5046012;28;20032;-81
2021/07/22 06:38:45;;;;;;;23.52;2.50;;;16.30;99.90;;;;;;5046135;28;20156;-80
2021/07/22 06:41:11;;;;;;;6.32;1.92;;;16.30;99.90;;;;;;5046009;28;20025;-80
2021/07/22 06:43:36;;;;;;;12.27;2.22;;;16.30;99.90;;;;;;5042887;28;20090;-80
2021/07/22 06:46:02;;;;;;;11.50;2.85;;;16.40;99.90;;;;;;5047022;28;20095;-82
2021/07/22 06:48:27;;;;;;;8.07;2.33;;;16.50;99.90;;;;;;5047005;28;20511;-82
2021/07/22 06:50:53;;;;;;;20.27;4.30;;;16.60;99.90;;;;;;5032864;28;20027;-81
2021/07/22 06:53:20;;;;;;;14.55;3.55;;;16.70;99.90;;;;;;5046942;28;20033;-82
2021/07/22 06:55:48;;;;;;;11.25;2.15;;;16.60;99.90;;;;;;5049168;28;20031;-80
2021/07/22 06:58:14;;;;;;;17.70;2.63;;;16.60;99.90;;;;;;5033559;28;20695;-80
2021/07/22 07:00:39;;;;;;;14.80;3.08;;;16.60;99.90;;;;;;5018712;28;20022;-80
2021/07/22 07:03:06;;;;;;;15.23;2.80;;;16.70;99.90;;;;;;5011581;28;20414;-80
2021/07/22 07:05:33;;;;;;;10.52;2.70;;;16.60;99.90;;;;;;5020428;28;20105;-82
2021/07/22 07:07:59;;;;;;;14.70;2.78;;;16.70;99.90;;;;;;5028975;28;20029;-80
2021/07/22 07:10:25;;;;;;;10.68;2.67;;;16.70;99.90;;;;;;5028593;28;20078;-79
2021/07/22 07:12:51;;;;;;;10.93;2.72;;;16.60;99.90;;;;;;5033179;28;20025;-80
2021/07/22 07:15:17;;;;;;;9.45;2.60;;;16.60;99.90;;;;;;5029943;28;20083;-79
2021/07/22 07:17:43;;;;;;;12.65;3.20;;;16.60;99.90;;;;;;5028542;28;20089;-79
2021/07/22 07:20:09;;;;;;;16.52;3.90;;;16.70;99.90;;;;;;5013744;28;20026;-78
2021/07/22 07:22:35;;;;;;;10.82;2.83;;;16.70;99.90;;;;;;5035426;28;20032;-78
2021/07/22 07:25:00;;;;;;;13.60;2.60;;;16.80;99.90;;;;;;5041863;28;20040;-80
2021/07/22 07:27:26;;;;;;;10.63;3.80;;;16.90;99.90;;;;;;5050123;28;20025;-80
2021/07/22 07:29:51;;;;;;;12.80;2.80;;;16.80;99.90;;;;;;5032789;28;20159;-80
2021/07/22 07:32:17;;;;;;;14.68;3.00;;;16.90;99.90;;;;;;5047167;28;20112;-80
2021/07/22 07:34:42;;;;;;;7.43;2.58;;;16.90;99.90;;;;;;5050450;28;20025;-80
2021/07/22 07:37:08;;;;;;;10.77;3.67;;;17.00;99.90;;;;;;5050263;28;20024;-81
2021/07/22 07:39:34;;;;;;;16.90;3.20;;;17.10;99.90;;;;;;5050626;28;20044;-80
2021/07/22 07:42:01;;;;;;;7.85;2.63;;;17.10;99.90;;;;;;5041713;28;20025;-80
2021/07/22 07:44:27;;;;;;;12.77;2.90;;;17.10;99.90;;;;;;5031158;28;20025;-80
2021/07/22 07:46:52;;;;;;;10.68;3.67;;;17.10;99.90;;;;;;5050207;28;20297;-80
2021/07/22 07:49:18;;;;;;;8.65;3.05;;;17.10;99.90;;;;;;5032339;28;20103;-81
2021/07/22 07:51:43;;;;;;;12.38;3.50;;;17.10;99.90;;;;;;5033283;28;20429;-82
2021/07/22 07:54:11;;;;;;;9.18;3.13;;;17.10;99.90;;;;;;5013892;28;20026;-79
2021/07/22 07:56:36;;;;;;;17.73;4.00;;;17.20;99.90;;;;;;5043496;28;20059;-80
2021/07/22 07:59:02;;;;;;;13.15;3.63;;;17.20;99.90;;;;;;5031980;28;20041;-79
2021/07/22 08:01:29;;;;;;;10.80;2.97;;;17.20;99.90;;;;;;5044809;28;20036;-80
2021/07/22 08:03:56;;;;;;;10.55;2.75;;;17.30;99.90;;;;;;5049915;28;20059;-80
2021/07/22 08:06:22;;;;;;;15.38;3.17;;;17.30;99.90;;;;;;5031531;28;20664;-81
2021/07/22 08:08:47;;;;;;;9.48;3.20;;;17.30;99.90;;;;;;5030029;28;20017;-82
2021/07/22 08:11:13;;;;;;;14.05;4.35;;;17.40;99.90;;;;;;5031638;28;20120;-82
2021/07/22 08:13:38;;;;;;;13.35;2.95;;;17.50;99.90;;;;;;5049908;28;20029;-81
2021/07/22 08:16:05;;;;;;;9.60;2.90;;;17.40;99.90;;;;;;5048728;28;20040;-82
2021/07/22 08:18:30;;;;;;;8.98;2.65;;;17.40;99.90;;;;;;5045024;28;20032;-81
2021/07/22 08:20:56;;;;;;;14.25;3.58;;;17.50;99.90;;;;;;5049645;28;20543;-80
2021/07/22 08:23:22;;;;;;;13.10;2.90;;;17.60;99.90;;;;;;5041256;28;20450;-81
2021/07/22 08:25:47;;;;;;;12.55;3.45;;;17.60;99.90;;;;;;5031416;28;20029;-78
2021/07/22 08:28:13;;;;;;;7.78;2.75;;;17.70;99.90;;;;;;5023003;28;20025;-81
2021/07/22 08:30:39;;;;;;;16.55;4.28;;;17.60;99.90;;;;;;5050229;28;20037;-79
2021/07/22 08:33:05;;;;;;;10.50;2.97;;;17.60;99.90;;;;;;5031883;28;20036;-80
2021/07/22 08:35:31;;;;;;;14.10;3.33;;;17.60;99.90;;;;;;5049821;28;20033;-81
2021/07/22 08:37:57;;;;;;;10.40;3.08;;;17.50;99.90;;;;;;5047406;28;20032;-81
2021/07/22 08:40:25;;;;;;;14.77;3.63;;;17.40;99.90;;;;;;5031337;28;20024;-80
2021/07/22 08:42:54;;;;;;;9.30;2.97;;;17.50;99.90;;;;;;5048904;28;20481;-80
2021/07/22 08:45:20;;;;;;;6.88;3.03;;;17.50;99.90;;;;;;5048810;28;20036;-80
2021/07/22 08:47:46;;;;;;;14.38;3.63;;;17.60;99.90;;;;;;5023411;28;20021;-82
2021/07/22 08:50:14;;;;;;;5.82;2.80;;;17.60;99.90;;;;;;5031219;28;20059;-81
2021/07/22 08:52:40;;;;;;;13.60;3.20;;;17.60;99.90;;;;;;5048990;28;20021;-80
2021/07/22 08:55:06;;;;;;;9.00;3.25;;;17.60;99.90;;;;;;5040674;28;20029;-80
2021/07/22 08:57:33;;;;;;;15.20;3.13;;;17.70;99.90;;;;;;5023629;28;20527;-80
2021/07/22 09:00:00;;;;;;;12.88;3.65;;;17.70;99.90;;;;;;5049472;28;20029;-80
2021/07/22 09:02:31;;;;;;;14.13;3.10;;;17.70;99.90;;;;;;5048930;28;20025;-78
2021/07/22 09:04:58;;;;;;;14.30;3.42;;;17.70;99.90;;;;;;5048688;28;20035;-80
2021/07/22 09:07:24;;;;;;;20.85;3.97;;;17.70;99.90;;;;;;5048391;28;20478;-80
2021/07/22 09:10:07;;;;;;;15.48;3.45;;;17.90;99.90;;;;;;5043240;28;20037;-78
2021/07/22 09:12:35;;;;;;;9.20;2.78;;;18.00;99.90;;;;;;5035836;28;20020;-80
2021/07/22 09:15:01;;;;;;;7.80;2.40;;;18.00;99.90;;;;;;5048346;28;20082;-81
2021/07/22 09:17:27;;;;;;;12.57;2.95;;;18.10;99.90;;;;;;5030599;28;20858;-79
2021/07/22 09:19:53;;;;;;;16.10;3.60;;;18.00;99.90;;;;;;5042555;28;20163;-78
2021/07/22 09:22:36;;;;;;;13.70;3.33;;;18.10;99.90;;;;;;5048329;28;20477;-81
2021/07/22 09:25:03;;;;;;;10.40;3.07;;;18.00;99.90;;;;;;5030159;28;20153;-81
2021/07/22 09:27:42;;;;;;;11.63;3.35;;;18.00;99.90;;;;;;5048029;28;20532;-81
2021/07/22 09:30:19;;;;;;;14.02;3.20;;;18.00;99.90;;;;;;5028729;28;20029;-82
2021/07/22 09:32:48;;;;;;;13.93;3.15;;;18.10;99.90;;;;;;5048143;28;20061;-83
2021/07/22 09:35:21;;;;;;;18.25;3.38;;;18.20;99.90;;;;;;5048041;28;20103;-82
2021/07/22 09:37:48;;;;;;;15.90;3.15;;;18.10;99.90;;;;;;5021842;28;20047;-84
2021/07/22 09:40:31;;;;;;;10.23;3.30;;;18.10;99.90;;;;;;5028514;28;20036;-82
2021/07/22 09:42:56;;;;;;;14.55;4.10;;;18.10;99.90;;;;;;5030122;28;20583;-82
2021/07/22 09:45:27;;;;;;;9.48;3.72;;;18.20;99.90;;;;;;5047714;28;20021;-84
2021/07/22 09:47:54;;;;;;;17.05;3.58;;;18.20;99.90;;;;;;5044193;28;20538;-82
2021/07/22 09:50:23;;;;;;;13.10;3.17;;;18.10;99.90;;;;;;5047257;28;20397;-82
2021/07/22 09:53:05;;;;;;;13.80;3.05;;;18.10;99.90;;;;;;5048021;28;20027;-83
2021/07/22 09:55:32;;;;;;;17.95;3.63;;;18.10;99.90;;;;;;5023754;28;20558;-82
2021/07/22 09:58:03;;;;;;;14.60;3.85;;;18.10;99.90;;;;;;5014334;28;20041;-81
2021/07/22 10:00:31;;;;;;;7.47;3.60;;;18.20;99.90;;;;;;5014175;28;20021;-82
2021/07/22 10:02:59;;;;;;;12.32;2.78;;;18.10;99.90;;;;;;5031881;28;20041;-82
2021/07/22 10:05:28;;;;;;;14.25;3.20;;;18.20;99.90;;;;;;5031997;28;20036;-81
2021/07/22 10:07:56;;;;;;;13.50;3.45;;;18.20;99.90;;;;;;5031455;28;20017;-82
2021/07/22 10:10:24;;;;;;;10.52;3.15;;;18.10;99.90;;;;;;5030158;28;20131;-83
2021/07/22 10:12:55;;;;;;;13.35;2.78;;;18.10;99.90;;;;;;5021741;28;20026;-84
2021/07/22 10:15:23;;;;;;;10.90;3.33;;;18.10;99.90;;;;;;5046954;28;20021;-82
2021/07/22 10:17:52;;;;;;;11.48;3.63;;;18.00;99.90;;;;;;5044044;28;20045;-84
2021/07/22 10:20:18;;;;;;;15.52;4.40;;;17.90;99.90;;;;;;5028741;28;20025;-83
2021/07/22 10:22:45;;;;;;;19.33;3.58;;;17.70;99.90;;;;;;5047310;28;20056;-82
2021/07/22 10:25:15;;;;;;;13.50;4.57;;;17.70;99.90;;;;;;5029395;28;20025;-84
2021/07/22 10:27:42;;;;;;;11.85;3.22;;;17.70;99.90;;;;;;5046587;28;20025;-82
2021/07/22 10:30:09;;;;;;;20.90;3.42;;;17.80;99.90;;;;;;5027564;28;20090;-82
2021/07/22 10:32:37;;;;;;;7.45;2.83;;;17.90;99.90;;;;;;5047078;28;20083;-80
2021/07/22 10:35:04;;;;;;;13.75;3.70;;;17.80;99.90;;;;;;5047242;28;20112;-80
2021/07/22 10:37:29;;;;;;;13.52;3.45;;;17.70;99.90;;;;;;5047154;28;20405;-81
2021/07/22 10:40:10;;;;;;;12.02;3.53;;;17.60;99.90;;;;;;5043382;28;20040;-81
2021/07/22 10:42:42;;;;;;;6.20;2.97;;;17.60;99.90;;;;;;5032633;28;20032;-79
2021/07/22 10:45:20;;;;;;;9.90;3.55;;;17.70;99.90;;;;;;5013787;28;20394;-79
2021/07/22 10:48:05;;;;;;;10.63;2.92;;;17.80;99.90;;;;;;5027242;28;20021;-81
2021/07/22 10:50:37;;;;;;;16.55;3.35;;;17.80;99.90;;;;;;4998432;28;20390;-80
2021/07/22 10:53:04;;;;;;;15.88;4.32;;;17.80;99.90;;;;;;5031210;28;20030;-80
2021/07/22 10:55:42;;;;;;;12.18;3.55;;;17.90;99.90;;;;;;5031547;28;20029;-80
2021/07/22 10:58:29;;;;;;;14.60;3.67;;;17.90;99.90;;;;;;5030260;28;20025;-80
2021/07/22 11:00:55;;;;;;;14.18;4.43;;;18.00;99.90;;;;;;5030021;28;20744;-81
2021/07/22 11:03:35;;;;;;;11.73;2.90;;;18.00;99.90;;;;;;5035321;28;20104;-79
2021/07/22 11:06:02;;;;;;;12.73;3.38;;;18.20;99.90;;;;;;5035335;28;20097;-79
2021/07/22 11:08:29;;;;;;;15.55;5.22;;;18.40;99.90;;;;;;5035206;28;20073;-80
2021/07/22 11:10:55;;;;;;;9.23;3.20;;;18.50;99.90;;;;;;5017338;28;20056;-80
2021/07/22 11:13:38;;;;;;;10.27;2.80;;;18.60;99.90;;;;;;5035106;28;20060;-81
2021/07/22 11:16:07;;;;;;;15.10;4.90;;;18.80;99.90;;;;;;5035085;28;20049;-79
2021/07/22 11:18:42;;;;;;;12.05;3.20;;;19.00;99.90;;;;;;5017332;28;20171;-79
2021/07/22 11:21:18;;;;;;;9.63;3.25;;;18.80;99.90;;;;;;5017270;28;20070;-80
2021/07/22 11:23:53;;;;;;;8.68;3.10;;;18.80;99.90;;;;;;5035101;28;20028;-80
2021/07/22 11:26:27;;;;;;;11.43;2.75;;;18.70;99.90;;;;;;5034969;28;20117;-81
2021/07/22 11:28:52;;;;;;;;;;;18.70;99.90;;;;;;5035395;28;20037;-79
2021/07/22 11:31:19;;;;;;;11.50;3.90;;;18.60;99.90;;;;;;5034849;28;19909;-80
2021/07/22 11:33:45;;;;;;;12.88;3.72;;;18.50;99.90;;;;;;5017345;28;20021;-80
2021/07/22 11:36:13;;;;;;;11.32;3.10;;;18.50;99.90;;;;;;5034844;28;20025;-82
2021/07/22 11:38:39;;;;;;;13.82;3.85;;;18.70;99.90;;;;;;5016858;28;20473;-80
2021/07/22 11:41:14;;;;;;;12.45;3.22;;;18.70;99.90;;;;;;5034691;28;20029;-82
2021/07/22 11:43:48;;;;;;;13.85;4.03;;;18.60;99.90;;;;;;5014918;28;20041;-79
2021/07/22 11:46:32;;;;;;;17.23;3.58;;;18.60;99.90;;;;;;5014685;28;20022;-80
2021/07/22 11:48:58;;;;;;;10.38;2.97;;;18.60;99.90;;;;;;5013597;28;20037;-78
2021/07/22 11:51:23;;;;;;;14.18;4.38;;;18.50;99.90;;;;;;5014533;28;20166;-80
2021/07/22 11:53:56;;;;;;;13.30;3.30;;;18.60;99.90;;;;;;5014769;28;20543;-80
2021/07/22 11:56:22;;;;;;;9.93;2.72;;;18.60;99.90;;;;;;5010799;28;20037;-80
2021/07/22 11:58:49;;;;;;;9.23;2.72;;;18.60;99.90;;;;;;5016353;28;20025;-80
2021/07/22 12:01:16;;;;;;;8.05;2.35;;;18.60;99.90;;;;;;5034169;28;20105;-80
2021/07/22 12:03:47;;;;;;;12.60;3.13;;;18.70;99.90;;;;;;5016488;28;20029;-81
2021/07/22 12:06:25;;;;;;;10.52;3.25;;;19.00;99.90;;;;;;5002595;28;20037;-80
2021/07/22 12:09:20;;;;;;;14.20;3.05;;;19.00;99.90;;;;;;5029312;28;20037;-83
2021/07/22 12:12:00;;;;;;;5.00;2.58;;;18.80;99.90;;;;;;5002997;28;20442;-84
2021/07/22 12:14:37;;;;;;;11.93;3.30;;;18.80;99.90;;;;;;5031670;28;20059;-82
2021/07/22 12:17:04;;;;;;;11.65;2.60;;;18.70;99.90;;;;;;5043646;28;20036;-84
2021/07/22 12:19:32;;;;;;;13.60;2.78;;;18.70;99.90;;;;;;5026459;28;20080;-82
2021/07/22 12:22:24;;;;;;;11.43;3.15;;;18.80;99.90;;;;;;5033736;28;20409;-81
2021/07/22 12:24:55;;;;;;;11.95;3.88;;;19.00;99.90;;;;;;5015919;28;20032;-81
2021/07/22 12:27:32;;;;;;;8.60;2.42;;;19.30;99.90;;;;;;5015865;28;20180;-81
2021/07/22 12:29:58;;;;;;;13.82;3.05;;;19.40;99.90;;;;;;5033669;28;20501;-81
2021/07/22 12:32:24;;;;;;;7.97;2.67;;;19.40;99.90;;;;;;5033534;28;20026;-80
2021/07/22 12:34:51;;;;;;;7.47;3.10;;;19.60;99.90;;;;;;5015714;28;20113;-82
2021/07/22 12:37:16;;;;;;;9.63;3.55;;;19.60;99.90;;;;;;5033534;28;20037;-83
2021/07/22 12:39:42;;;;;;;17.30;3.05;;;19.60;99.90;;;;;;5015951;28;20029;-82
2021/07/22 12:42:14;;;;;;;11.52;3.30;;;19.70;99.90;;;;;;5033425;28;20429;-82